Etusivu
METAR-TAF:

METAR-TAF

Lentoasemat :

Amman, Jordania

Leveyspiiri: 31-59N, Pituuspiiri: 035-59E, korkeus merenpinnasta: 767 m

Tämänhetkinen sää

Tämä raportti tehtiin 52 minuuttia sitten, kello 18.00 UTC
Tuuli 6 kn pohjoisen/luoteesta
Lämpötila 24°C
Kosteus 65%
Ilmanpaine 1014 hPa
Näkyvyys: 5000 m
usvaa

METAR: OJAM 191800Z 33006KT 5000 HZ NSC 24/17 Q1014 NOSIG

Aika: 21:52 (18:52 UTC)

Sääennuste

Tämä raportti tehtiin 2 tuntia ja 6 minuuttia sitten, kello 16.46 UTC
Ennuste voimassa 19. päivästä klo 18 UTC - 20. päivään klo 24 UTC
Tuuli 10 kn lännestä/luoteesta
Näkyvyys: 5000 m
usvaa
Ajoittain
20. päivästä klo 01 UTC - 20. päivään klo 05 UTC
Tuuli 2 kn eri suunnista
Näkyvyys: 3000 m
utua

TAF: OJAM 191646Z 1918/2024 29010KT 5000 HZ NSC TEMPO 2001/2005 VRB02KT 3000 BR

Säähavainnot ja -ennusteet yli 4000 lentoasemalta (METAR- ja TAF-raportit).

Käytössä olevat sääasemat on merkitty karttaan keltaisilla ja punaisilla pisteillä.

Aseta hiiri pisteen päälle nähdäksesi sääaseman nimen.

Klikkaa sitten nähdäksesi säähavainnot ja -ennusteet.

Kartan vaihtaminen: klikkaa mustalla rastilla varustettuja vihreitä pisteitä, niin voit zoomata sisään; viivalla varustettua vihreää pistettä, niin voit zoomata ulos tai vihreitä nuolia, niin pääset viereisille kartoille.


METAR-TAF: